createdAt,value
2022-12-18T00:00:10.209Z,-1.88
2022-12-18T00:03:00.051Z,-1.85
2022-12-18T00:05:28.353Z,-2.08
2022-12-18T00:07:56.842Z,-2.19
2022-12-18T00:10:25.014Z,-2.17
2022-12-18T00:12:53.571Z,-2.17
2022-12-18T00:15:21.804Z,-2.15
2022-12-18T00:17:50.390Z,-2.27
2022-12-18T00:20:26.615Z,-1.94
2022-12-18T00:22:55.170Z,-2.15
2022-12-18T00:25:23.686Z,-2.16
2022-12-18T00:27:52.399Z,-2.27
2022-12-18T00:30:20.632Z,-2.18
2022-12-18T00:32:48.990Z,-2.14
2022-12-18T00:35:17.191Z,-2.13
2022-12-18T00:37:47.076Z,-1.77
2022-12-18T00:40:15.364Z,-1.99
2022-12-18T00:42:58.003Z,-2.08
2022-12-18T00:45:27.377Z,-1.96
2022-12-18T00:47:56.279Z,-2.03
2022-12-18T00:50:24.750Z,-1.98
2022-12-18T00:52:54.897Z,-1.61
2022-12-18T00:55:23.746Z,-1.94
2022-12-18T00:57:53.302Z,-1.71
2022-12-18T01:00:21.988Z,-1.85
2022-12-18T01:02:50.629Z,-1.98
2022-12-18T01:05:19.189Z,-1.97
2022-12-18T01:07:47.542Z,-2.02
2022-12-18T01:10:17.209Z,-1.76
2022-12-18T01:12:45.786Z,-2.08
2022-12-18T01:15:15.601Z,-1.78
2022-12-18T01:17:44.297Z,-2.03
2022-12-18T01:20:13.629Z,-1.96
2022-12-18T01:22:42.196Z,-2.12
2022-12-18T01:25:11.037Z,-2.00
2022-12-18T01:27:40.828Z,-1.93
2022-12-18T01:30:10.086Z,-2.03
2022-12-18T01:32:38.571Z,-2.23
2022-12-18T01:35:08.218Z,-1.95
2022-12-18T01:37:36.655Z,-2.17
2022-12-18T01:40:05.469Z,-2.03
2022-12-18T01:42:33.948Z,-2.11
2022-12-18T01:45:06.909Z,-1.75
2022-12-18T01:47:40.042Z,-1.73
2022-12-18T01:50:13.025Z,-1.73
2022-12-18T01:52:46.697Z,-1.67
2022-12-18T01:55:15.400Z,-1.86
2022-12-18T01:57:43.891Z,-2.00
2022-12-18T02:00:16.610Z,-1.59
2022-12-18T02:02:46.686Z,-1.85
2022-12-18T02:05:19.140Z,-1.68
2022-12-18T02:07:55.826Z,-1.70
2022-12-18T02:10:28.128Z,-1.69
2022-12-18T02:13:04.155Z,-1.67
2022-12-18T02:15:38.647Z,-1.70
2022-12-18T02:18:10.527Z,-1.75
2022-12-18T02:20:41.819Z,-1.84
2022-12-18T02:23:13.836Z,-1.32
2022-12-18T02:26:07.171Z,-1.51
2022-12-18T02:28:38.539Z,-1.82
2022-12-18T02:31:09.184Z,-1.81
2022-12-18T02:33:38.668Z,-2.00
2022-12-18T02:36:08.076Z,-2.02
2022-12-18T02:38:37.350Z,-2.04
2022-12-18T02:41:07.783Z,-1.87
2022-12-18T02:43:36.329Z,-2.12
2022-12-18T02:46:27.414Z,-1.59
2022-12-18T02:48:58.960Z,-1.80
2022-12-18T02:51:32.718Z,-1.70
2022-12-18T02:54:06.496Z,-1.70
2022-12-18T02:56:39.008Z,-1.74
2022-12-18T02:59:11.086Z,-1.74
2022-12-18T03:01:46.533Z,-1.70
2022-12-18T03:04:16.949Z,-1.78
2022-12-18T03:06:48.908Z,-1.69
2022-12-18T03:09:22.887Z,-1.77
2022-12-18T03:12:15.005Z,-1.71
2022-12-18T03:14:45.670Z,-1.82
2022-12-18T03:17:18.001Z,-1.78
2022-12-18T03:19:48.515Z,-1.92
2022-12-18T03:22:17.111Z,-2.10
2022-12-18T03:24:46.850Z,-1.97
2022-12-18T03:27:18.351Z,-1.86
2022-12-18T03:29:50.118Z,-1.87
2022-12-18T03:32:21.886Z,-1.94
2022-12-18T03:34:53.378Z,-1.96
2022-12-18T03:37:21.509Z,-2.28
2022-12-18T03:39:50.077Z,-2.23
2022-12-18T03:42:25.564Z,-1.81
2022-12-18T03:44:59.947Z,-1.81
2022-12-18T03:47:30.401Z,-1.87
2022-12-18T03:50:01.806Z,-1.89
2022-12-18T03:52:33.212Z,-1.93
2022-12-18T03:55:04.228Z,-1.98
2022-12-18T03:57:34.756Z,-1.93
2022-12-18T04:00:06.616Z,-1.94
2022-12-18T04:02:36.261Z,-1.99
2022-12-18T04:05:07.913Z,-2.02
2022-12-18T04:07:36.252Z,-2.23
2022-12-18T04:10:07.483Z,-2.13
2022-12-18T04:12:37.049Z,-2.05
2022-12-18T04:15:06.544Z,-2.22
2022-12-18T04:17:34.778Z,-2.37
2022-12-18T04:20:03.200Z,-2.38
2022-12-18T04:22:31.344Z,-2.36
2022-12-18T04:24:59.968Z,-2.36
2022-12-18T04:27:28.106Z,-2.35
2022-12-18T04:29:58.058Z,-2.04
2022-12-18T04:32:26.190Z,-2.31
2022-12-18T04:34:54.769Z,-2.28
2022-12-18T04:37:22.852Z,-2.30
2022-12-18T04:39:51.560Z,-2.22
2022-12-18T04:42:19.704Z,-2.20
2022-12-18T04:44:48.214Z,-2.11
2022-12-18T04:47:17.695Z,-1.86
2022-12-18T04:49:46.178Z,-2.18
2022-12-18T04:52:14.302Z,-2.30
2022-12-18T04:54:42.725Z,-2.29
2022-12-18T04:57:11.128Z,-2.20
2022-12-18T04:59:39.608Z,-2.28
2022-12-18T05:02:08.094Z,-2.20
2022-12-18T05:04:37.980Z,-1.94
2022-12-18T05:07:06.217Z,-2.31
2022-12-18T05:09:34.639Z,-2.35
2022-12-18T05:12:02.878Z,-2.32
2022-12-18T05:14:31.291Z,-2.32
2022-12-18T05:17:01.257Z,-2.37
2022-12-18T05:19:29.902Z,-2.37
2022-12-18T05:21:59.871Z,-2.01
2022-12-18T05:24:28.375Z,-2.30
2022-12-18T05:26:56.529Z,-2.36
2022-12-18T05:29:25.040Z,-2.37
2022-12-18T05:31:53.449Z,-2.27
2022-12-18T05:34:21.915Z,-2.31
2022-12-18T05:36:50.311Z,-2.40
2022-12-18T05:39:20.106Z,-2.20
2022-12-18T05:41:48.366Z,-2.46
2022-12-18T05:44:16.749Z,-2.51
2022-12-18T05:46:45.097Z,-2.50
2022-12-18T05:49:13.509Z,-2.63
2022-12-18T05:51:41.880Z,-2.53
2022-12-18T05:54:11.181Z,-2.61
2022-12-18T05:56:45.488Z,-2.37
2022-12-18T05:59:17.137Z,-2.63
2022-12-18T06:01:45.290Z,-2.68
2022-12-18T06:04:14.006Z,-2.67
2022-12-18T06:06:42.582Z,-2.57
2022-12-18T06:09:19.281Z,-2.39
2022-12-18T06:11:47.913Z,-2.72
2022-12-18T06:14:18.273Z,-2.73
2022-12-18T06:16:46.678Z,-2.72
2022-12-18T06:19:17.974Z,-2.30
2022-12-18T06:21:46.544Z,-2.64
2022-12-18T06:24:14.888Z,-2.63
2022-12-18T06:26:44.874Z,-2.33
2022-12-18T06:29:13.179Z,-2.70
2022-12-18T06:31:41.795Z,-2.67
2022-12-18T06:34:10.195Z,-2.68
2022-12-18T06:36:38.695Z,-2.75
2022-12-18T06:39:07.115Z,-2.76
2022-12-18T06:41:36.089Z,-2.74
2022-12-18T06:44:07.013Z,-2.35
2022-12-18T06:46:35.319Z,-1.97
2022-12-18T06:49:03.555Z,-2.61
2022-12-18T06:51:32.181Z,-2.57
2022-12-18T06:54:00.412Z,-2.59
2022-12-18T06:56:29.150Z,-2.59
2022-12-18T06:58:57.385Z,-2.53
2022-12-18T07:01:27.315Z,-2.22
2022-12-18T07:03:56.844Z,-2.27
2022-12-18T07:06:27.057Z,-2.26
2022-12-18T07:08:56.423Z,-2.25
2022-12-18T07:11:25.316Z,-2.33
2022-12-18T07:13:54.996Z,-2.10
2022-12-18T07:16:25.507Z,-2.14
2022-12-18T07:18:56.791Z,-1.79
2022-12-18T07:21:25.863Z,-1.98
2022-12-18T07:23:54.036Z,-2.12
2022-12-18T07:26:23.840Z,-1.85
2022-12-18T07:28:52.119Z,-2.05
2022-12-18T07:31:22.491Z,-1.78
2022-12-18T07:33:51.920Z,-1.77
2022-12-18T07:36:24.981Z,-1.67
2022-12-18T07:38:53.878Z,-1.69
2022-12-18T07:41:22.517Z,-1.73
2022-12-18T07:43:50.687Z,-1.87
2022-12-18T07:46:19.550Z,-1.73
2022-12-18T07:48:49.687Z,-1.59
2022-12-18T07:51:19.742Z,-1.47
2022-12-18T07:53:52.183Z,-1.28
2022-12-18T07:56:27.793Z,-1.42
2022-12-18T07:58:56.988Z,-1.42
2022-12-18T08:01:26.000Z,-1.30
2022-12-18T08:03:54.480Z,-1.30
2022-12-18T08:06:24.467Z,-1.17
2022-12-18T08:08:55.574Z,-0.78
2022-12-18T08:11:24.235Z,-0.07
2022-12-18T08:13:52.808Z,-0.21
2022-12-18T08:16:21.744Z,0.61
2022-12-18T08:18:50.531Z,1.42
2022-12-18T08:21:22.311Z,2.35
2022-12-18T08:23:51.662Z,2.84
2022-12-18T08:26:22.465Z,3.80
2022-12-18T08:28:51.075Z,4.10
2022-12-18T08:31:19.771Z,4.33
2022-12-18T08:33:50.706Z,5.04
2022-12-18T08:36:19.396Z,5.18
2022-12-18T08:38:47.847Z,5.52
2022-12-18T08:41:18.066Z,6.14
2022-12-18T08:44:05.461Z,6.56
2022-12-18T08:46:36.970Z,6.52
2022-12-18T08:49:06.074Z,5.74
2022-12-18T08:51:34.825Z,5.21
2022-12-18T08:54:03.046Z,4.86
2022-12-18T08:56:33.105Z,4.86
2022-12-18T08:59:02.713Z,5.15
2022-12-18T09:01:31.352Z,4.88
2022-12-18T09:04:00.372Z,4.55
2022-12-18T09:06:28.921Z,4.25
2022-12-18T09:08:57.050Z,4.11
2022-12-18T09:11:28.522Z,4.33
2022-12-18T09:13:56.957Z,4.91
2022-12-18T09:16:32.387Z,4.74
2022-12-18T09:19:02.094Z,4.90
2022-12-18T09:21:33.217Z,5.30
2022-12-18T09:24:03.413Z,5.15
2022-12-18T09:26:32.047Z,5.16
2022-12-18T09:29:00.285Z,5.50
2022-12-18T09:31:30.200Z,6.33
2022-12-18T09:33:58.731Z,6.88
2022-12-18T09:36:27.246Z,7.06
2022-12-18T09:38:55.929Z,6.84
2022-12-18T09:41:37.519Z,7.18
2022-12-18T09:44:11.826Z,6.97
2022-12-18T09:46:46.876Z,6.62
2022-12-18T09:49:18.541Z,5.98
2022-12-18T09:51:51.424Z,5.40
2022-12-18T09:54:24.432Z,6.06
2022-12-18T09:56:53.001Z,6.79
2022-12-18T09:59:26.014Z,7.13
2022-12-18T10:01:56.148Z,6.43
2022-12-18T10:04:24.689Z,5.39
2022-12-18T10:06:57.450Z,4.98
2022-12-18T10:09:35.215Z,4.88
2022-12-18T10:12:09.814Z,4.96
2022-12-18T10:14:44.224Z,5.43
2022-12-18T10:17:22.317Z,6.18
2022-12-18T10:19:53.891Z,7.32
2022-12-18T10:22:36.221Z,8.93
2022-12-18T10:25:07.382Z,9.57
2022-12-18T10:27:35.647Z,10.86
2022-12-18T10:30:07.537Z,10.93
2022-12-18T10:32:37.763Z,10.62
2022-12-18T10:35:10.342Z,9.43
2022-12-18T10:37:38.653Z,8.70
2022-12-18T10:40:20.174Z,7.40
2022-12-18T10:43:05.780Z,6.98
2022-12-18T10:45:34.133Z,7.36
2022-12-18T10:48:03.932Z,8.66
2022-12-18T10:53:26.286Z,10.57
2022-12-18T10:55:55.795Z,9.49
2022-12-18T10:58:27.354Z,8.93
2022-12-18T11:01:08.857Z,8.99
2022-12-18T11:03:40.625Z,8.32
2022-12-18T11:06:11.783Z,9.32
2022-12-18T11:08:40.398Z,10.71
2022-12-18T11:11:17.185Z,10.09
2022-12-18T11:13:57.649Z,9.91
2022-12-18T11:16:25.976Z,8.95
2022-12-18T11:18:56.109Z,7.66
2022-12-18T11:21:24.297Z,5.70
2022-12-18T11:23:54.095Z,4.78
2022-12-18T11:26:22.870Z,4.00
2022-12-18T11:28:53.130Z,3.37
2022-12-18T11:31:29.656Z,2.81
2022-12-18T11:36:57.073Z,1.69
2022-12-18T11:39:32.328Z,2.18
2022-12-18T11:42:13.222Z,2.49
2022-12-18T11:44:50.411Z,2.86
2022-12-18T11:47:26.893Z,3.14
2022-12-18T11:49:58.516Z,3.54
2022-12-18T11:52:26.595Z,4.97
2022-12-18T11:54:55.612Z,5.50
2022-12-18T11:57:35.193Z,7.42
2022-12-18T12:00:09.860Z,8.37
2022-12-18T12:02:56.522Z,9.31
2022-12-18T12:05:42.547Z,8.84
2022-12-18T12:08:18.300Z,7.38
2022-12-18T12:10:54.989Z,5.50
2022-12-18T12:13:31.425Z,3.98
2022-12-18T12:16:09.041Z,2.71
2022-12-18T12:18:50.473Z,2.09
2022-12-18T12:21:25.936Z,1.82
2022-12-18T12:23:59.969Z,1.81
2022-12-18T12:26:34.906Z,1.43
2022-12-18T12:29:15.453Z,1.21
2022-12-18T12:31:58.643Z,1.00
2022-12-18T12:34:29.512Z,0.85
2022-12-18T12:37:09.948Z,1.21
2022-12-18T12:39:40.676Z,1.09
2022-12-18T12:42:34.388Z,1.01
2022-12-18T12:45:04.421Z,0.33
2022-12-18T12:47:35.216Z,0.01
2022-12-18T12:50:08.173Z,-0.01
2022-12-18T12:52:41.980Z,0.03
2022-12-18T12:55:24.214Z,0.09
2022-12-18T12:58:00.293Z,-0.00
2022-12-18T13:00:32.577Z,-0.18
2022-12-18T13:03:07.234Z,-0.23
2022-12-18T13:05:41.800Z,-0.55
2022-12-18T13:08:13.152Z,-0.52
2022-12-18T13:10:42.572Z,-0.69
2022-12-18T13:13:13.377Z,-0.38
2022-12-18T13:18:34.390Z,-0.56
2022-12-18T13:21:06.697Z,-0.46
2022-12-18T13:23:39.246Z,-0.70
2022-12-18T13:26:34.084Z,-0.68
2022-12-18T13:29:05.386Z,-1.10
2022-12-18T13:32:10.531Z,-0.55
2022-12-18T13:34:39.011Z,-1.19
2022-12-18T13:37:45.669Z,-0.71
2022-12-18T13:40:59.865Z,-0.74
2022-12-18T13:43:39.760Z,-1.03
2022-12-18T13:46:21.358Z,-1.18
2022-12-18T13:48:59.320Z,-1.18
2022-12-18T13:51:28.808Z,-1.50
2022-12-18T13:53:59.936Z,-1.40
2022-12-18T13:56:29.942Z,-1.47
2022-12-18T13:59:22.656Z,-1.23
2022-12-18T14:01:56.335Z,-1.70
2022-12-18T14:04:30.417Z,-1.74
2022-12-18T14:07:03.574Z,-1.97
2022-12-18T14:09:41.859Z,-2.18
2022-12-18T14:12:35.179Z,-2.28
2022-12-18T14:15:05.878Z,-2.51
2022-12-18T14:17:35.229Z,-3.04
2022-12-18T14:20:04.973Z,-2.83
2022-12-18T14:22:33.505Z,-3.00
2022-12-18T14:25:17.258Z,-2.76
2022-12-18T14:27:48.107Z,-3.14
2022-12-18T14:30:32.800Z,-2.91
2022-12-18T14:33:05.662Z,-3.21
2022-12-18T14:35:37.416Z,-3.58
2022-12-18T14:38:23.974Z,-3.21
2022-12-18T14:40:59.634Z,-3.37
2022-12-18T14:43:29.478Z,-3.69
2022-12-18T14:46:00.066Z,-3.81
2022-12-18T14:48:40.204Z,-3.62
2022-12-18T14:51:20.323Z,-3.87
2022-12-18T14:53:54.332Z,-3.79
2022-12-18T14:56:24.783Z,-3.88
2022-12-18T14:58:56.251Z,-3.94
2022-12-18T15:01:26.728Z,-3.63
2022-12-18T15:03:56.524Z,-4.32
2022-12-18T15:06:31.274Z,-4.22
2022-12-18T15:09:00.473Z,-4.34
2022-12-18T15:11:44.911Z,-4.16
2022-12-18T15:14:31.470Z,-4.27
2022-12-18T15:17:01.693Z,-4.21
2022-12-18T15:19:37.670Z,-4.32
2022-12-18T15:22:06.843Z,-4.60
2022-12-18T15:24:35.862Z,-4.92
2022-12-18T15:27:03.997Z,-4.78
2022-12-18T15:29:32.754Z,-4.75
2022-12-18T15:32:04.584Z,-4.74
2022-12-18T15:34:35.170Z,-4.59
2022-12-18T15:37:03.403Z,-4.82
2022-12-18T15:39:32.244Z,-4.90
2022-12-18T15:42:17.832Z,-5.07
2022-12-18T15:44:46.830Z,-4.93
2022-12-18T15:47:16.638Z,-4.84
2022-12-18T15:49:45.528Z,-5.09
2022-12-18T15:52:26.947Z,-5.13
2022-12-18T15:55:13.595Z,-5.32
2022-12-18T15:57:43.544Z,-5.74
2022-12-18T16:00:15.079Z,-5.75
2022-12-18T16:02:45.302Z,-4.99
2022-12-18T16:05:18.051Z,-5.23
2022-12-18T16:07:46.734Z,-5.61
2022-12-18T16:10:15.796Z,-5.59
2022-12-18T16:12:44.371Z,-5.54
2022-12-18T16:15:22.453Z,-5.70
2022-12-18T16:17:53.873Z,-5.83
2022-12-18T16:20:24.161Z,-5.90
2022-12-18T16:22:53.372Z,-6.21
2022-12-18T16:25:23.004Z,-6.04
2022-12-18T16:27:51.696Z,-6.15
2022-12-18T16:30:22.315Z,-6.26
2022-12-18T16:32:50.735Z,-6.40
2022-12-18T16:35:20.747Z,-6.20
2022-12-18T16:37:49.519Z,-6.10
2022-12-18T16:40:19.186Z,-6.14
2022-12-18T16:42:48.292Z,-6.11
2022-12-18T16:45:18.573Z,-6.40
2022-12-18T16:47:47.730Z,-6.63
2022-12-18T16:50:16.374Z,-6.72
2022-12-18T16:52:46.265Z,-6.33
2022-12-18T16:55:14.810Z,-6.69
2022-12-18T16:57:43.398Z,-6.89
2022-12-18T17:00:13.543Z,-6.57
2022-12-18T17:02:42.161Z,-6.71
2022-12-18T17:05:11.148Z,-6.55
2022-12-18T17:07:39.386Z,-6.65
2022-12-18T17:10:10.644Z,-6.42
2022-12-18T17:12:38.992Z,-6.82
2022-12-18T17:15:08.990Z,-6.57
2022-12-18T17:17:37.268Z,-6.64
2022-12-18T17:20:06.618Z,-6.84
2022-12-18T17:22:35.068Z,-7.28
2022-12-18T17:25:03.675Z,-7.31
2022-12-18T17:27:33.540Z,-7.04
2022-12-18T17:30:02.396Z,-7.43
2022-12-18T17:32:31.085Z,-7.41
2022-12-18T17:35:05.388Z,-7.57
2022-12-18T17:37:38.160Z,-7.45
2022-12-18T17:40:08.377Z,-7.68
2022-12-18T17:42:38.386Z,-7.37
2022-12-18T17:45:08.614Z,-7.59
2022-12-18T17:47:37.200Z,-7.42
2022-12-18T17:50:06.355Z,-7.21
2022-12-18T17:52:35.013Z,-7.31
2022-12-18T17:55:03.706Z,-7.44
2022-12-18T17:57:32.269Z,-7.53
2022-12-18T18:00:02.574Z,-7.08
2022-12-18T18:02:31.086Z,-7.78
2022-12-18T18:05:00.622Z,-7.85
2022-12-18T18:07:28.862Z,-7.79
2022-12-18T18:09:57.443Z,-7.66
2022-12-18T18:12:43.234Z,-7.52
2022-12-18T18:15:13.406Z,-7.70
2022-12-18T18:17:41.756Z,-7.72
2022-12-18T18:20:11.453Z,-7.49
2022-12-18T18:22:39.869Z,-7.68
2022-12-18T18:25:08.822Z,-7.51
2022-12-18T18:27:39.065Z,-7.44
2022-12-18T18:30:09.129Z,-7.29
2022-12-18T18:32:40.051Z,-7.68
2022-12-18T18:35:24.575Z,-7.98
2022-12-18T18:37:58.611Z,-7.85
2022-12-18T18:40:28.108Z,-7.78
2022-12-18T18:42:57.815Z,-8.02
2022-12-18T18:45:26.509Z,-7.99
2022-12-18T18:47:56.103Z,-7.98
2022-12-18T18:50:24.588Z,-7.87
2022-12-18T18:52:55.007Z,-7.80
2022-12-18T18:55:25.536Z,-7.97
2022-12-18T18:57:54.201Z,-8.10
2022-12-18T19:00:22.613Z,-8.07
2022-12-18T19:02:52.254Z,-8.28
2022-12-18T19:05:25.319Z,-7.85
2022-12-18T19:07:53.628Z,-8.06
2022-12-18T19:10:22.181Z,-8.24
2022-12-18T19:13:07.644Z,-7.91
2022-12-18T19:15:36.219Z,-7.97
2022-12-18T19:18:04.570Z,-8.17
2022-12-18T19:20:34.590Z,-8.28
2022-12-18T19:23:02.802Z,-8.65
2022-12-18T19:25:40.633Z,-9.03
2022-12-18T19:28:16.021Z,-8.74
2022-12-18T19:30:54.541Z,-8.44
2022-12-18T19:33:43.041Z,-9.03
2022-12-18T19:36:16.304Z,-8.65
2022-12-18T19:38:45.326Z,-8.90
2022-12-18T19:41:15.537Z,-8.48
2022-12-18T19:43:44.218Z,-8.80
2022-12-18T19:46:16.167Z,-8.45
2022-12-18T19:48:45.520Z,-8.57
2022-12-18T19:51:18.128Z,-8.09
2022-12-18T19:53:46.591Z,-8.43
2022-12-18T19:56:16.709Z,-8.99
2022-12-18T19:58:45.386Z,-9.31
2022-12-18T20:01:16.521Z,-9.18
2022-12-18T20:03:49.133Z,-9.48
2022-12-18T20:06:26.409Z,-9.25
2022-12-18T20:09:00.650Z,-9.49
2022-12-18T20:11:30.000Z,-9.59
2022-12-18T20:13:58.535Z,-9.73
2022-12-18T20:16:27.042Z,-10.02
2022-12-18T20:18:55.362Z,-10.05
2022-12-18T20:21:25.873Z,-9.65
2022-12-18T20:23:54.988Z,-9.82
2022-12-18T20:26:23.576Z,-9.86
2022-12-18T20:28:51.879Z,-9.81
2022-12-18T20:31:20.548Z,-10.15
2022-12-18T20:33:49.920Z,-10.13
2022-12-18T20:36:22.649Z,-9.61
2022-12-18T20:38:58.191Z,-9.91
2022-12-18T20:41:31.633Z,-10.22
2022-12-18T20:44:07.305Z,-9.97
2022-12-18T20:46:42.613Z,-9.95
2022-12-18T20:49:11.275Z,-10.23
2022-12-18T20:51:39.779Z,-9.80
2022-12-18T20:54:11.949Z,-9.53
2022-12-18T20:56:40.643Z,-9.75
2022-12-18T20:59:09.149Z,-10.08
2022-12-18T21:01:39.011Z,-9.80
2022-12-18T21:04:09.698Z,-9.73
2022-12-18T21:06:38.456Z,-9.48
2022-12-18T21:09:06.989Z,-9.64
2022-12-18T21:11:54.732Z,-9.30
2022-12-18T21:14:24.702Z,-9.39
2022-12-18T21:16:56.632Z,-9.52
2022-12-18T21:19:27.315Z,-9.12
2022-12-18T21:21:57.070Z,-9.42
2022-12-18T21:24:25.781Z,-9.60
2022-12-18T21:26:57.085Z,-9.54
2022-12-18T21:29:26.749Z,-9.76
2022-12-18T21:31:56.021Z,-9.65
2022-12-18T21:34:26.683Z,-9.67
2022-12-18T21:36:55.143Z,-9.08
2022-12-18T21:39:23.477Z,-9.65
2022-12-18T21:42:09.976Z,-9.66
2022-12-18T21:44:41.952Z,-9.62
2022-12-18T21:47:22.002Z,-9.58
2022-12-18T21:49:52.734Z,-9.16
2022-12-18T21:52:31.662Z,-9.06
2022-12-18T21:55:09.614Z,-9.15
2022-12-18T21:57:39.407Z,-8.93
2022-12-18T22:00:19.093Z,-8.97
2022-12-18T22:03:01.214Z,-9.11
2022-12-18T22:05:37.060Z,-9.25
2022-12-18T22:08:07.033Z,-9.14
2022-12-18T22:10:35.772Z,-9.38
2022-12-18T22:13:04.501Z,-9.27
2022-12-18T22:15:34.358Z,-8.82
2022-12-18T22:18:03.040Z,-9.44
2022-12-18T22:20:31.240Z,-9.35
2022-12-18T22:23:05.601Z,-9.19
2022-12-18T22:25:35.462Z,-9.20
2022-12-18T22:28:25.803Z,-9.22
2022-12-18T22:30:59.683Z,-8.70
2022-12-18T22:33:29.010Z,-9.04
2022-12-18T22:35:57.276Z,-8.82
2022-12-18T22:38:25.884Z,-8.92
2022-12-18T22:40:54.087Z,-9.04
2022-12-18T22:43:22.641Z,-8.74
2022-12-18T22:45:50.895Z,-8.68
2022-12-18T22:48:20.823Z,-8.47
2022-12-18T22:50:49.829Z,-8.62
2022-12-18T22:53:19.635Z,-9.00
2022-12-18T22:55:47.805Z,-9.35
2022-12-18T22:58:16.292Z,-9.12
2022-12-18T23:00:44.569Z,-8.97
2022-12-18T23:03:16.035Z,-8.88
2022-12-18T23:05:45.630Z,-8.93
2022-12-18T23:08:14.207Z,-9.38
2022-12-18T23:10:42.390Z,-9.40
2022-12-18T23:13:10.982Z,-9.49
2022-12-18T23:15:42.717Z,-8.89
2022-12-18T23:18:11.499Z,-9.31
2022-12-18T23:20:39.724Z,-9.38
2022-12-18T23:23:10.127Z,-8.79
2022-12-18T23:25:38.381Z,-9.18
2022-12-18T23:28:07.339Z,-9.33
2022-12-18T23:30:35.805Z,-9.18
2022-12-18T23:33:04.395Z,-9.40
2022-12-18T23:35:32.772Z,-9.67
2022-12-18T23:38:01.253Z,-9.36
2022-12-18T23:40:31.501Z,-9.07
2022-12-18T23:43:00.530Z,-9.07
2022-12-18T23:45:28.802Z,-9.36
2022-12-18T23:47:57.318Z,-9.42
2022-12-18T23:50:29.704Z,-9.36
2022-12-18T23:53:05.049Z,-9.05
2022-12-18T23:55:40.491Z,-8.95
2022-12-18T23:58:10.657Z,-9.33
